sensor_id;sensor_type;location;lat;lon;timestamp;pressure;altitude;pressure_sealevel;temperature;humidity
44255;BME280;29933;47.226;15.734;2023-01-01T00:02:06;96975.38;;;4.62;100.00
44255;BME280;29933;47.226;15.734;2023-01-01T00:04:32;96970.06;;;4.86;100.00
44255;BME280;29933;47.226;15.734;2023-01-01T00:06:59;96969.97;;;5.08;100.00
44255;BME280;29933;47.226;15.734;2023-01-01T00:09:25;96981.97;;;5.10;100.00
44255;BME280;29933;47.226;15.734;2023-01-01T00:12:09;96984.66;;;5.10;100.00
44255;BME280;29933;47.226;15.734;2023-01-01T00:14:35;96979.41;;;5.14;100.00
44255;BME280;29933;47.226;15.734;2023-01-01T00:17:01;96973.22;;;5.26;100.00
44255;BME280;29933;47.226;15.734;2023-01-01T00:19:27;96970.75;;;5.33;100.00
44255;BME280;29933;47.226;15.734;2023-01-01T00:21:52;96973.44;;;5.21;100.00
44255;BME280;29933;47.226;15.734;2023-01-01T00:24:18;96976.13;;;5.21;100.00
44255;BME280;29933;47.226;15.734;2023-01-01T00:26:44;96974.47;;;5.28;100.00
44255;BME280;29933;47.226;15.734;2023-01-01T00:29:10;96970.75;;;5.33;100.00
44255;BME280;29933;47.226;15.734;2023-01-01T00:31:36;96968.41;;;5.31;100.00
44255;BME280;29933;47.226;15.734;2023-01-01T00:34:02;96971.69;;;5.37;100.00
44255;BME280;29933;47.226;15.734;2023-01-01T00:36:28;96965.13;;;5.38;100.00
44255;BME280;29933;47.226;15.734;2023-01-01T00:38:54;96972.69;;;5.32;100.00
44255;BME280;29933;47.226;15.734;2023-01-01T00:41:21;96969.19;;;5.19;100.00
44255;BME280;29933;47.226;15.734;2023-01-01T00:43:47;96968.28;;;5.03;100.00
44255;BME280;29933;47.226;15.734;2023-01-01T00:46:13;96969.19;;;4.95;100.00
44255;BME280;29933;47.226;15.734;2023-01-01T00:48:39;96970.75;;;4.83;100.00
44255;BME280;29933;47.226;15.734;2023-01-01T00:51:05;96966.00;;;4.80;100.00
44255;BME280;29933;47.226;15.734;2023-01-01T00:53:31;96966.25;;;4.88;100.00
44255;BME280;29933;47.226;15.734;2023-01-01T00:55:57;96964.78;;;4.90;100.00
44255;BME280;29933;47.226;15.734;2023-01-01T00:58:24;96962.53;;;4.80;100.00
44255;BME280;29933;47.226;15.734;2023-01-01T01:00:51;96952.53;;;4.68;100.00
44255;BME280;29933;47.226;15.734;2023-01-01T01:03:17;96948.69;;;4.57;100.00
44255;BME280;29933;47.226;15.734;2023-01-01T01:08:28;96956.16;;;4.38;100.00
44255;BME280;29933;47.226;15.734;2023-01-01T01:10:54;96948.50;;;4.28;100.00
44255;BME280;29933;47.226;15.734;2023-01-01T01:13:20;96946.13;;;4.27;100.00
44255;BME280;29933;47.226;15.734;2023-01-01T01:15:46;96955.53;;;4.20;100.00
44255;BME280;29933;47.226;15.734;2023-01-01T01:18:12;96953.72;;;4.12;100.00
44255;BME280;29933;47.226;15.734;2023-01-01T01:20:38;96951.22;;;4.07;100.00
44255;BME280;29933;47.226;15.734;2023-01-01T01:23:04;96951.88;;;4.04;100.00
44255;BME280;29933;47.226;15.734;2023-01-01T01:25:29;96950.50;;;3.98;100.00
44255;BME280;29933;47.226;15.734;2023-01-01T01:27:55;96949.91;;;3.92;100.00
44255;BME280;29933;47.226;15.734;2023-01-01T01:30:21;96949.66;;;3.85;100.00
44255;BME280;29933;47.226;15.734;2023-01-01T01:32:47;96946.84;;;3.81;100.00
44255;BME280;29933;47.226;15.734;2023-01-01T01:35:13;96950.19;;;3.78;100.00
44255;BME280;29933;47.226;15.734;2023-01-01T01:37:38;96945.66;;;3.70;100.00
44255;BME280;29933;47.226;15.734;2023-01-01T01:40:04;96949.34;;;3.65;100.00
44255;BME280;29933;47.226;15.734;2023-01-01T01:42:30;96947.63;;;3.61;100.00
44255;BME280;29933;47.226;15.734;2023-01-01T01:45:04;96951.88;;;3.62;100.00
44255;BME280;29933;47.226;15.734;2023-01-01T01:47:48;96947.03;;;3.55;100.00
44255;BME280;29933;47.226;15.734;2023-01-01T01:50:29;96942.84;;;3.45;100.00
44255;BME280;29933;47.226;15.734;2023-01-01T01:53:22;96939.22;;;3.41;100.00
44255;BME280;29933;47.226;15.734;2023-01-01T01:55:51;96941.00;;;3.58;100.00
44255;BME280;29933;47.226;15.734;2023-01-01T01:58:19;96933.34;;;3.69;100.00
44255;BME280;29933;47.226;15.734;2023-01-01T02:00:45;96930.06;;;3.84;100.00
44255;BME280;29933;47.226;15.734;2023-01-01T02:03:21;96925.84;;;3.96;100.00
44255;BME280;29933;47.226;15.734;2023-01-01T02:05:49;96931.88;;;4.14;100.00
44255;BME280;29933;47.226;15.734;2023-01-01T02:08:16;96920.13;;;4.18;100.00
44255;BME280;29933;47.226;15.734;2023-01-01T02:10:42;96923.44;;;4.36;100.00
44255;BME280;29933;47.226;15.734;2023-01-01T02:13:08;96923.91;;;4.38;100.00
44255;BME280;29933;47.226;15.734;2023-01-01T02:21:23;96902.13;;;4.31;100.00
44255;BME280;29933;47.226;15.734;2023-01-01T02:32:12;96881.22;;;4.62;100.00
44255;BME280;29933;47.226;15.734;2023-01-01T02:34:50;96871.81;;;4.68;100.00
44255;BME280;29933;47.226;15.734;2023-01-01T02:37:19;96873.84;;;4.83;100.00
44255;BME280;29933;47.226;15.734;2023-01-01T02:39:56;96863.97;;;4.88;100.00
44255;BME280;29933;47.226;15.734;2023-01-01T02:42:27;96865.31;;;4.81;100.00
44255;BME280;29933;47.226;15.734;2023-01-01T02:44:55;96871.81;;;4.68;100.00
44255;BME280;29933;47.226;15.734;2023-01-01T02:47:23;96879.09;;;4.55;100.00
44255;BME280;29933;47.226;15.734;2023-01-01T02:50:14;96876.28;;;4.51;100.00
44255;BME280;29933;47.226;15.734;2023-01-01T02:53:08;96866.41;;;4.56;100.00
44255;BME280;29933;47.226;15.734;2023-01-01T02:56:11;96871.56;;;4.61;100.00
44255;BME280;29933;47.226;15.734;2023-01-01T02:58:54;96866.00;;;4.53;100.00
44255;BME280;29933;47.226;15.734;2023-01-01T03:02:53;96872.22;;;4.33;100.00
44255;BME280;29933;47.226;15.734;2023-01-01T03:08:07;96881.78;;;4.55;100.00
44255;BME280;29933;47.226;15.734;2023-01-01T03:14:09;96888.19;;;4.63;100.00
44255;BME280;29933;47.226;15.734;2023-01-01T03:24:29;96892.56;;;5.05;100.00
44255;BME280;29933;47.226;15.734;2023-01-01T03:27:01;96891.53;;;5.22;100.00
44255;BME280;29933;47.226;15.734;2023-01-01T03:29:34;96889.84;;;5.29;100.00
44255;BME280;29933;47.226;15.734;2023-01-01T03:32:03;96900.19;;;5.27;100.00
44255;BME280;29933;47.226;15.734;2023-01-01T03:34:38;96886.38;;;5.16;100.00
44255;BME280;29933;47.226;15.734;2023-01-01T03:37:09;96886.50;;;5.08;100.00
44255;BME280;29933;47.226;15.734;2023-01-01T03:39:46;96876.09;;;5.06;100.00
44255;BME280;29933;47.226;15.734;2023-01-01T03:42:40;96871.38;;;5.03;100.00
44255;BME280;29933;47.226;15.734;2023-01-01T03:45:16;96877.91;;;4.90;100.00
44255;BME280;29933;47.226;15.734;2023-01-01T03:47:45;96877.78;;;4.74;100.00
44255;BME280;29933;47.226;15.734;2023-01-01T03:50:11;96875.19;;;4.65;100.00
44255;BME280;29933;47.226;15.734;2023-01-01T03:53:19;96876.75;;;4.53;100.00
44255;BME280;29933;47.226;15.734;2023-01-01T03:57:01;96885.19;;;4.31;100.00
44255;BME280;29933;47.226;15.734;2023-01-01T03:59:22;96876.06;;;4.11;100.00
44255;BME280;29933;47.226;15.734;2023-01-01T04:01:55;96884.91;;;3.99;100.00
44255;BME280;29933;47.226;15.734;2023-01-01T04:04:24;96885.31;;;3.88;100.00
44255;BME280;29933;47.226;15.734;2023-01-01T04:06:51;96884.59;;;3.79;100.00
44255;BME280;29933;47.226;15.734;2023-01-01T04:09:23;96886.22;;;3.71;100.00
44255;BME280;29933;47.226;15.734;2023-01-01T04:11:50;96886.94;;;3.81;100.00
44255;BME280;29933;47.226;15.734;2023-01-01T04:14:37;96901.53;;;3.92;100.00
44255;BME280;29933;47.226;15.734;2023-01-01T04:17:05;96888.81;;;4.01;100.00
44255;BME280;29933;47.226;15.734;2023-01-01T04:19:32;96885.59;;;4.08;100.00
44255;BME280;29933;47.226;15.734;2023-01-01T04:21:58;96888.91;;;4.26;100.00
44255;BME280;29933;47.226;15.734;2023-01-01T04:24:25;96886.38;;;4.42;100.00
44255;BME280;29933;47.226;15.734;2023-01-01T04:26:52;96880.41;;;4.36;100.00
44255;BME280;29933;47.226;15.734;2023-01-01T04:29:18;96878.91;;;4.27;100.00
44255;BME280;29933;47.226;15.734;2023-01-01T04:31:45;96878.03;;;4.22;100.00
44255;BME280;29933;47.226;15.734;2023-01-01T04:34:11;96872.19;;;4.20;100.00
44255;BME280;29933;47.226;15.734;2023-01-01T04:36:37;96875.44;;;4.14;100.00
44255;BME280;29933;47.226;15.734;2023-01-01T04:39:04;96874.84;;;4.08;100.00
44255;BME280;29933;47.226;15.734;2023-01-01T04:41:31;96862.97;;;4.09;100.00
44255;BME280;29933;47.226;15.734;2023-01-01T04:43:57;96866.13;;;4.11;100.00
44255;BME280;29933;47.226;15.734;2023-01-01T04:46:23;96855.38;;;4.11;100.00
44255;BME280;29933;47.226;15.734;2023-01-01T04:48:50;96858.38;;;4.10;100.00
44255;BME280;29933;47.226;15.734;2023-01-01T04:51:18;96861.22;;;4.26;100.00
44255;BME280;29933;47.226;15.734;2023-01-01T04:53:45;96856.69;;;4.51;100.00
44255;BME280;29933;47.226;15.734;2023-01-01T04:56:19;96856.78;;;4.54;100.00
44255;BME280;29933;47.226;15.734;2023-01-01T04:58:46;96852.88;;;4.64;100.00
44255;BME280;29933;47.226;15.734;2023-01-01T05:01:30;96867.91;;;4.78;100.00
44255;BME280;29933;47.226;15.734;2023-01-01T05:03:58;96859.94;;;4.81;100.00
44255;BME280;29933;47.226;15.734;2023-01-01T05:06:25;96856.13;;;5.07;100.00
44255;BME280;29933;47.226;15.734;2023-01-01T05:08:54;96849.38;;;5.13;100.00
44255;BME280;29933;47.226;15.734;2023-01-01T05:11:24;96854.66;;;5.22;100.00
44255;BME280;29933;47.226;15.734;2023-01-01T05:13:52;96856.66;;;5.25;100.00
44255;BME280;29933;47.226;15.734;2023-01-01T05:16:23;96851.03;;;5.18;100.00
44255;BME280;29933;47.226;15.734;2023-01-01T05:18:50;96847.81;;;5.12;100.00
44255;BME280;29933;47.226;15.734;2023-01-01T05:21:28;96850.91;;;5.27;100.00
44255;BME280;29933;47.226;15.734;2023-01-01T05:23:57;96868.06;;;5.34;100.00
44255;BME280;29933;47.226;15.734;2023-01-01T05:26:25;96865.28;;;5.31;100.00
44255;BME280;29933;47.226;15.734;2023-01-01T05:28:52;96864.84;;;5.29;100.00
44255;BME280;29933;47.226;15.734;2023-01-01T05:31:21;96869.75;;;5.27;100.00
44255;BME280;29933;47.226;15.734;2023-01-01T05:33:47;96877.84;;;5.14;100.00
44255;BME280;29933;47.226;15.734;2023-01-01T05:36:16;96878.44;;;5.08;100.00
44255;BME280;29933;47.226;15.734;2023-01-01T05:38:42;96886.97;;;5.10;100.00
44255;BME280;29933;47.226;15.734;2023-01-01T05:41:09;96895.47;;;5.12;100.00
44255;BME280;29933;47.226;15.734;2023-01-01T05:43:35;96896.69;;;5.14;100.00
44255;BME280;29933;47.226;15.734;2023-01-01T05:46:02;96898.41;;;5.07;100.00
44255;BME280;29933;47.226;15.734;2023-01-01T05:48:28;96900.97;;;4.91;100.00
44255;BME280;29933;47.226;15.734;2023-01-01T05:51:00;96900.41;;;4.73;100.00
44255;BME280;29933;47.226;15.734;2023-01-01T05:53:28;96899.72;;;4.63;100.00
44255;BME280;29933;47.226;15.734;2023-01-01T05:55:54;96889.94;;;4.46;100.00
44255;BME280;29933;47.226;15.734;2023-01-01T05:58:20;96880.16;;;4.29;100.00
44255;BME280;29933;47.226;15.734;2023-01-01T06:00:45;96872.78;;;4.26;100.00
44255;BME280;29933;47.226;15.734;2023-01-01T06:03:11;96874.66;;;4.26;100.00
44255;BME280;29933;47.226;15.734;2023-01-01T06:05:37;96868.41;;;4.34;100.00
44255;BME280;29933;47.226;15.734;2023-01-01T06:08:03;96870.88;;;4.39;100.00
44255;BME280;29933;47.226;15.734;2023-01-01T06:10:28;96864.63;;;4.47;100.00
44255;BME280;29933;47.226;15.734;2023-01-01T06:12:54;96861.72;;;4.52;100.00
44255;BME280;29933;47.226;15.734;2023-01-01T06:15:26;96848.38;;;4.56;100.00
44255;BME280;29933;47.226;15.734;2023-01-01T06:17:52;96861.50;;;4.58;100.00
44255;BME280;29933;47.226;15.734;2023-01-01T06:20:18;96866.41;;;4.56;100.00
44255;BME280;29933;47.226;15.734;2023-01-01T06:22:44;96875.50;;;4.51;100.00
44255;BME280;29933;47.226;15.734;2023-01-01T06:25:10;96880.31;;;4.45;100.00
44255;BME280;29933;47.226;15.734;2023-01-01T06:27:36;96880.31;;;4.45;100.00
44255;BME280;29933;47.226;15.734;2023-01-01T06:30:06;96874.06;;;4.66;100.00
44255;BME280;29933;47.226;15.734;2023-01-01T06:32:32;96866.31;;;4.89;100.00
44255;BME280;29933;47.226;15.734;2023-01-01T06:34:58;96873.16;;;4.99;100.00
44255;BME280;29933;47.226;15.734;2023-01-01T06:37:23;96883.69;;;5.04;100.00
44255;BME280;29933;47.226;15.734;2023-01-01T06:39:49;96890.66;;;5.05;100.00
44255;BME280;29933;47.226;15.734;2023-01-01T06:42:15;96888.31;;;5.03;100.00
44255;BME280;29933;47.226;15.734;2023-01-01T06:44:41;96889.09;;;5.04;100.00
44255;BME280;29933;47.226;15.734;2023-01-01T06:47:07;96885.84;;;4.98;100.00
44255;BME280;29933;47.226;15.734;2023-01-01T06:49:32;96888.09;;;4.84;100.00
44255;BME280;29933;47.226;15.734;2023-01-01T06:51:58;96890.41;;;4.73;100.00
44255;BME280;29933;47.226;15.734;2023-01-01T06:54:24;96906.69;;;4.77;100.00
44255;BME280;29933;47.226;15.734;2023-01-01T06:56:50;96906.69;;;4.77;100.00
44255;BME280;29933;47.226;15.734;2023-01-01T06:59:16;96911.41;;;4.80;100.00
44255;BME280;29933;47.226;15.734;2023-01-01T07:01:42;96920.25;;;4.80;100.00
44255;BME280;29933;47.226;15.734;2023-01-01T07:04:12;96913.88;;;4.73;100.00
44255;BME280;29933;47.226;15.734;2023-01-01T07:06:39;96911.41;;;4.80;100.00
44255;BME280;29933;47.226;15.734;2023-01-01T07:09:05;96919.59;;;4.96;100.00
44255;BME280;29933;47.226;15.734;2023-01-01T07:11:32;96921.41;;;5.04;100.00
44255;BME280;29933;47.226;15.734;2023-01-01T07:13:58;96923.31;;;5.03;100.00
44255;BME280;29933;47.226;15.734;2023-01-01T07:16:24;96928.25;;;5.01;100.00
44255;BME280;29933;47.226;15.734;2023-01-01T07:18:50;96917.94;;;4.91;100.00
44255;BME280;29933;47.226;15.734;2023-01-01T07:21:43;96912.66;;;4.95;100.00
44255;BME280;29933;47.226;15.734;2023-01-01T07:24:10;96916.47;;;5.06;100.00
44255;BME280;29933;47.226;15.734;2023-01-01T07:26:37;96922.09;;;5.01;100.00
44255;BME280;29933;47.226;15.734;2023-01-01T07:29:03;96925.19;;;5.03;100.00
44255;BME280;29933;47.226;15.734;2023-01-01T07:31:28;96937.91;;;5.15;100.00
44255;BME280;29933;47.226;15.734;2023-01-01T07:33:54;96947.63;;;5.32;100.00
44255;BME280;29933;47.226;15.734;2023-01-01T07:36:20;96950.00;;;5.33;100.00
44255;BME280;29933;47.226;15.734;2023-01-01T07:38:45;96959.56;;;5.31;100.00
44255;BME280;29933;47.226;15.734;2023-01-01T07:41:11;96955.06;;;5.35;100.00
44255;BME280;29933;47.226;15.734;2023-01-01T07:43:37;96962.34;;;5.34;100.00
44255;BME280;29933;47.226;15.734;2023-01-01T07:46:03;96969.19;;;5.32;100.00
44255;BME280;29933;47.226;15.734;2023-01-01T07:48:29;96967.63;;;5.31;100.00
44255;BME280;29933;47.226;15.734;2023-01-01T07:50:55;96958.41;;;5.32;100.00
44255;BME280;29933;47.226;15.734;2023-01-01T07:53:20;96955.41;;;5.33;100.00
44255;BME280;29933;47.226;15.734;2023-01-01T07:55:46;96951.56;;;5.34;100.00
44255;BME280;29933;47.226;15.734;2023-01-01T07:58:12;96963.13;;;5.35;100.00
44255;BME280;29933;47.226;15.734;2023-01-01T08:00:38;96974.03;;;5.39;100.00
44255;BME280;29933;47.226;15.734;2023-01-01T08:03:04;96979.41;;;5.39;100.00
44255;BME280;29933;47.226;15.734;2023-01-01T08:05:31;96988.25;;;5.39;100.00
44255;BME280;29933;47.226;15.734;2023-01-01T08:07:58;96993.22;;;5.37;100.00
44255;BME280;29933;47.226;15.734;2023-01-01T08:10:24;96991.66;;;5.36;100.00
44255;BME280;29933;47.226;15.734;2023-01-01T08:12:50;96993.53;;;5.35;100.00
44255;BME280;29933;47.226;15.734;2023-01-01T08:15:15;96994.66;;;5.34;100.00
44255;BME280;29933;47.226;15.734;2023-01-01T08:17:41;96989.84;;;5.28;100.00
44255;BME280;29933;47.226;15.734;2023-01-01T08:20:07;96998.13;;;5.23;100.00
44255;BME280;29933;47.226;15.734;2023-01-01T08:22:33;97004.66;;;5.22;100.00
44255;BME280;29933;47.226;15.734;2023-01-01T08:24:59;96996.56;;;5.22;100.00
44255;BME280;29933;47.226;15.734;2023-01-01T08:27:25;97006.56;;;5.21;100.00
44255;BME280;29933;47.226;15.734;2023-01-01T08:29:51;97001.28;;;5.25;100.00
44255;BME280;29933;47.226;15.734;2023-01-01T08:32:16;96989.72;;;5.24;100.00
44255;BME280;29933;47.226;15.734;2023-01-01T08:34:42;97004.19;;;5.19;100.00
44255;BME280;29933;47.226;15.734;2023-01-01T08:37:14;97005.88;;;5.12;100.00
44255;BME280;29933;47.226;15.734;2023-01-01T08:39:40;97008.00;;;5.06;100.00
44255;BME280;29933;47.226;15.734;2023-01-01T08:42:06;96997.22;;;4.94;100.00
44255;BME280;29933;47.226;15.734;2023-01-01T08:44:31;97007.50;;;4.79;100.00
44255;BME280;29933;47.226;15.734;2023-01-01T08:46:57;96994.00;;;4.67;100.00
44255;BME280;29933;47.226;15.734;2023-01-01T08:49:23;96990.16;;;4.56;100.00
44255;BME280;29933;47.226;15.734;2023-01-01T08:51:48;96998.91;;;4.52;100.00
44255;BME280;29933;47.226;15.734;2023-01-01T08:54:14;97007.63;;;4.49;100.00
44255;BME280;29933;47.226;15.734;2023-01-01T08:56:40;97009.16;;;4.38;100.00
44255;BME280;29933;47.226;15.734;2023-01-01T08:59:05;97010.13;;;4.33;100.00
44255;BME280;29933;47.226;15.734;2023-01-01T09:01:31;97014.16;;;4.27;100.00
44255;BME280;29933;47.226;15.734;2023-01-01T09:03:57;97010.22;;;4.25;100.00
44255;BME280;29933;47.226;15.734;2023-01-01T09:06:23;97007.53;;;4.25;100.00
44255;BME280;29933;47.226;15.734;2023-01-01T09:08:48;97005.50;;;4.21;100.00
44255;BME280;29933;47.226;15.734;2023-01-01T09:11:25;97012.13;;;4.24;100.00
44255;BME280;29933;47.226;15.734;2023-01-01T09:13:51;97004.19;;;4.28;100.00
44255;BME280;29933;47.226;15.734;2023-01-01T09:16:17;97010.03;;;4.30;100.00
44255;BME280;29933;47.226;15.734;2023-01-01T09:18:43;97010.25;;;4.37;100.00
44255;BME280;29933;47.226;15.734;2023-01-01T09:21:09;97023.53;;;4.42;100.00
44255;BME280;29933;47.226;15.734;2023-01-01T09:23:35;97020.50;;;4.44;100.00
44255;BME280;29933;47.226;15.734;2023-01-01T09:26:06;97024.44;;;4.46;100.00
44255;BME280;29933;47.226;15.734;2023-01-01T09:28:33;97021.88;;;4.50;100.00
44255;BME280;29933;47.226;15.734;2023-01-01T09:30:59;97028.94;;;4.54;100.00
44255;BME280;29933;47.226;15.734;2023-01-01T09:33:26;97033.66;;;4.58;100.00
44255;BME280;29933;47.226;15.734;2023-01-01T09:35:52;97034.13;;;4.60;100.00
44255;BME280;29933;47.226;15.734;2023-01-01T09:38:18;97035.38;;;4.62;100.00
44255;BME280;29933;47.226;15.734;2023-01-01T09:40:57;97036.16;;;4.63;100.00
44255;BME280;29933;47.226;15.734;2023-01-01T09:46:04;97029.56;;;4.73;100.00
44255;BME280;29933;47.226;15.734;2023-01-01T09:48:35;97024.31;;;4.76;100.00
44255;BME280;29933;47.226;15.734;2023-01-01T09:51:04;97033.28;;;4.80;100.00
44255;BME280;29933;47.226;15.734;2023-01-01T09:54:19;97025.34;;;4.84;100.00
44255;BME280;29933;47.226;15.734;2023-01-01T09:56:35;97027.81;;;4.89;100.00
44255;BME280;29933;47.226;15.734;2023-01-01T09:59:03;97027.94;;;4.93;100.00
44255;BME280;29933;47.226;15.734;2023-01-01T10:04:43;97033.91;;;5.11;100.00
44255;BME280;29933;47.226;15.734;2023-01-01T10:07:19;97031.47;;;5.30;100.00
44255;BME280;29933;47.226;15.734;2023-01-01T10:16:07;97040.34;;;5.56;100.00
44255;BME280;29933;47.226;15.734;2023-01-01T10:18:35;97046.97;;;5.58;100.00
44255;BME280;29933;47.226;15.734;2023-01-01T10:21:20;97045.38;;;5.82;100.00
44255;BME280;29933;47.226;15.734;2023-01-01T10:26:48;97040.84;;;7.08;100.00
44255;BME280;29933;47.226;15.734;2023-01-01T10:29:32;97045.19;;;7.29;100.00
44255;BME280;29933;47.226;15.734;2023-01-01T10:32:40;97050.34;;;7.18;100.00
44255;BME280;29933;47.226;15.734;2023-01-01T10:35:32;97042.84;;;7.11;100.00
44255;BME280;29933;47.226;15.734;2023-01-01T10:37:59;97035.09;;;7.10;100.00
44255;BME280;29933;47.226;15.734;2023-01-01T10:40:27;97031.00;;;7.16;100.00
44255;BME280;29933;47.226;15.734;2023-01-01T10:42:56;97038.75;;;7.66;100.00
44255;BME280;29933;47.226;15.734;2023-01-01T10:48:15;97027.91;;;8.17;100.00
44255;BME280;29933;47.226;15.734;2023-01-01T10:50:48;97020.25;;;8.58;100.00
44255;BME280;29933;47.226;15.734;2023-01-01T10:55:56;97030.78;;;9.06;100.00
44255;BME280;29933;47.226;15.734;2023-01-01T10:58:40;97017.06;;;9.42;100.00
44255;BME280;29933;47.226;15.734;2023-01-01T11:01:12;97016.59;;;9.63;100.00
44255;BME280;29933;47.226;15.734;2023-01-01T11:06:46;97007.91;;;9.77;100.00
44255;BME280;29933;47.226;15.734;2023-01-01T11:09:27;96998.63;;;9.78;100.00
44255;BME280;29933;47.226;15.734;2023-01-01T11:12:00;96989.53;;;9.94;100.00
44255;BME280;29933;47.226;15.734;2023-01-01T11:14:35;96991.31;;;10.13;100.00
44255;BME280;29933;47.226;15.734;2023-01-01T11:17:03;96986.28;;;10.42;100.00
44255;BME280;29933;47.226;15.734;2023-01-01T11:19:35;96987.66;;;10.62;100.00
44255;BME280;29933;47.226;15.734;2023-01-01T11:22:03;96987.75;;;10.69;100.00
44255;BME280;29933;47.226;15.734;2023-01-01T11:24:31;96982.69;;;10.72;100.00
44255;BME280;29933;47.226;15.734;2023-01-01T11:27:23;96985.91;;;10.81;100.00
44255;BME280;29933;47.226;15.734;2023-01-01T11:29:50;96986.75;;;10.89;100.00
44255;BME280;29933;47.226;15.734;2023-01-01T11:32:34;96984.09;;;10.92;100.00
44255;BME280;29933;47.226;15.734;2023-01-01T11:35:04;96977.50;;;10.93;100.00
44255;BME280;29933;47.226;15.734;2023-01-01T11:37:36;96976.78;;;11.00;100.00
44255;BME280;29933;47.226;15.734;2023-01-01T11:40:05;96971.34;;;11.00;100.00
44255;BME280;29933;47.226;15.734;2023-01-01T11:42:45;96967.91;;;11.07;100.00
44255;BME280;29933;47.226;15.734;2023-01-01T11:45:21;96963.38;;;11.22;100.00
44255;BME280;29933;47.226;15.734;2023-01-01T11:50:47;96959.16;;;11.28;100.00
44255;BME280;29933;47.226;15.734;2023-01-01T11:56:21;96957.34;;;11.50;100.00
44255;BME280;29933;47.226;15.734;2023-01-01T11:58:57;96954.63;;;11.50;100.00
44255;BME280;29933;47.226;15.734;2023-01-01T12:01:48;96954.63;;;11.50;100.00
44255;BME280;29933;47.226;15.734;2023-01-01T12:04:21;96957.84;;;11.63;100.00
44255;BME280;29933;47.226;15.734;2023-01-01T12:07:06;96948.94;;;11.70;100.00
44255;BME280;29933;47.226;15.734;2023-01-01T12:10:11;96954.09;;;11.86;100.00
44255;BME280;29933;47.226;15.734;2023-01-01T12:13:04;96948.38;;;12.05;100.00
44255;BME280;29933;47.226;15.734;2023-01-01T12:15:40;96945.75;;;12.27;100.00
44255;BME280;29933;47.226;15.734;2023-01-01T12:18:47;96946.59;;;12.45;100.00
44255;BME280;29933;47.226;15.734;2023-01-01T12:21:25;96952.09;;;12.67;100.00
44255;BME280;29933;47.226;15.734;2023-01-01T12:23:51;96950.56;;;12.84;100.00
44255;BME280;29933;47.226;15.734;2023-01-01T12:29:47;96952.16;;;13.14;100.00
44255;BME280;29933;47.226;15.734;2023-01-01T12:41:22;96963.09;;;13.50;100.00
44255;BME280;29933;47.226;15.734;2023-01-01T12:47:10;96956.03;;;13.67;100.00
44255;BME280;29933;47.226;15.734;2023-01-01T12:50:04;96955.22;;;13.81;98.89
44255;BME280;29933;47.226;15.734;2023-01-01T12:53:04;96956.75;;;14.04;99.79
44255;BME280;29933;47.226;15.734;2023-01-01T12:55:45;96959.06;;;14.09;99.70
44255;BME280;29933;47.226;15.734;2023-01-01T12:58:34;96952.78;;;14.16;100.00
44255;BME280;29933;47.226;15.734;2023-01-01T13:01:18;96960.56;;;14.17;97.66
44255;BME280;29933;47.226;15.734;2023-01-01T13:03:54;96960.16;;;14.22;97.32
44255;BME280;29933;47.226;15.734;2023-01-01T13:06:47;96966.84;;;14.14;96.98
44255;BME280;29933;47.226;15.734;2023-01-01T13:09:20;96954.34;;;14.17;99.66
44255;BME280;29933;47.226;15.734;2023-01-01T13:11:55;96959.81;;;14.09;100.00
44255;BME280;29933;47.226;15.734;2023-01-01T13:14:22;96962.97;;;14.01;99.98
44255;BME280;29933;47.226;15.734;2023-01-01T13:16:53;96958.69;;;14.00;99.68
44255;BME280;29933;47.226;15.734;2023-01-01T13:19:35;96964.53;;;13.98;99.40
44255;BME280;29933;47.226;15.734;2023-01-01T13:33:28;96984.78;;;14.15;99.65
44255;BME280;29933;47.226;15.734;2023-01-01T13:38:57;96993.34;;;14.14;96.91
44255;BME280;29933;47.226;15.734;2023-01-01T13:41:39;96995.72;;;14.15;97.51
44255;BME280;29933;47.226;15.734;2023-01-01T13:50:00;97005.91;;;14.04;95.03
44255;BME280;29933;47.226;15.734;2023-01-01T13:52:46;97012.91;;;14.01;95.26
44255;BME280;29933;47.226;15.734;2023-01-01T13:55:56;97012.53;;;13.81;96.10
44255;BME280;29933;47.226;15.734;2023-01-01T14:01:53;97021.53;;;13.78;97.02
44255;BME280;29933;47.226;15.734;2023-01-01T14:07:49;97027.00;;;13.64;96.08
44255;BME280;29933;47.226;15.734;2023-01-01T14:10:29;97031.69;;;13.59;96.48
44255;BME280;29933;47.226;15.734;2023-01-01T14:15:37;97034.75;;;13.36;98.33
44255;BME280;29933;47.226;15.734;2023-01-01T14:18:13;97038.28;;;13.37;98.23
44255;BME280;29933;47.226;15.734;2023-01-01T14:20:48;97027.75;;;13.32;98.88
44255;BME280;29933;47.226;15.734;2023-01-01T14:23:33;97036.69;;;13.07;98.48
44255;BME280;29933;47.226;15.734;2023-01-01T14:26:14;97041.25;;;12.74;99.07
44255;BME280;29933;47.226;15.734;2023-01-01T14:28:41;97048.88;;;12.32;100.00
44255;BME280;29933;47.226;15.734;2023-01-01T14:31:29;97056.78;;;11.92;100.00
44255;BME280;29933;47.226;15.734;2023-01-01T14:33:56;97053.41;;;11.58;100.00
44255;BME280;29933;47.226;15.734;2023-01-01T14:36:29;97061.28;;;11.25;100.00
44255;BME280;29933;47.226;15.734;2023-01-01T14:38:59;97066.06;;;10.98;100.00
44255;BME280;29933;47.226;15.734;2023-01-01T14:41:35;97068.50;;;10.73;100.00
44255;BME280;29933;47.226;15.734;2023-01-01T14:44:09;97070.53;;;10.49;100.00
44255;BME280;29933;47.226;15.734;2023-01-01T14:46:38;97085.38;;;10.28;100.00
44255;BME280;29933;47.226;15.734;2023-01-01T14:49:08;97081.63;;;10.10;100.00
44255;BME280;29933;47.226;15.734;2023-01-01T14:51:35;97083.72;;;9.93;100.00
44255;BME280;29933;47.226;15.734;2023-01-01T14:54:02;97089.72;;;9.79;100.00
44255;BME280;29933;47.226;15.734;2023-01-01T14:56:36;97084.41;;;9.63;100.00